Flight Track Log - Related Links

Times and Time Zones

All times are in EDT time to prevent confusion due to time zone crossing. See the DAL245 flight status page for this flight to view local times or setup timezone preferences in your user account.

Time Position Orientation Groundspeed Altitude Reporting Facility
EDT Latitude Longitude Course Direction KTS MPH feet Rate Location/Type
Tue 06:57:00 AM 41.8677 12.1080 309° West  Level Estimated
Tue 06:58:00 AM 41.9307 11.9649 294° West  Level Estimated
Tue 06:59:00 AM 41.9935 11.8215 301° West  Level Estimated
Tue 07:00:00 AM 42.0562 11.6778 299° West  Level Estimated
Tue 07:01:00 AM 42.1187 11.5339 298° West  Level Estimated
Tue 07:02:00 AM 42.1689 11.3814 294° West  Level FlightAware Approximate
Tue 07:03:00 AM 42.2189 11.2286 294° West  Level FlightAware Approximate
Tue 07:04:00 AM 42.2809 11.0839 304° West  Level Estimated
Tue 07:05:00 AM 42.3470 10.9423 302° West  Level FlightAware Approximate
Tue 07:06:00 AM 42.4011 10.7810 302° West  Level FlightAware Approximate
Tue 07:07:00 AM 42.4660 10.6383 302° West  Level FlightAware Approximate
Tue 07:08:00 AM 42.5240 10.4901 297° West  Level FlightAware Approximate
Tue 07:08:42 AM 41.7590 12.2480 297° West 149 171 2,100  Level FlightAware ADS-B
Tue 07:09:00 AM 42.5796 10.3390 297° West  Level FlightAware Approximate
Tue 07:09:07 AM 41.7480 12.2320 227° Southwest 174 200 2,600  Level FlightAware ADS-B
Tue 07:09:17 AM 41.7480 12.2240 270° West 185 213 2,800 1,200 Climbing FlightAware ADS-B
Tue 07:09:47 AM 41.7610 12.1870 295° West 208 239 3,400 960 Climbing FlightAware ADS-B
Tue 07:10:07 AM 41.7640 12.1650 280° West 215 247 3,600 720 Climbing FlightAware ADS-B
Tue 07:10:37 AM 41.7780 12.1170 291° West 263 303 4,000 1,200 Climbing FlightAware ADS-B
Tue 07:11:02 AM 41.7930 12.0780 297° West 276 318 4,700 1,920 Climbing FlightAware ADS-B
Tue 07:11:27 AM 41.8050 12.0410 294° West 280 322 5,600 2,291 Climbing FlightAware ADS-B
Tue 07:11:57 AM 41.8210 11.9910 293° West 282 325 6,800 2,200 Climbing FlightAware ADS-B
Tue 07:12:27 AM 41.8360 11.9430 293° West 289 333 7,800 1,950 Climbing FlightAware ADS-B
Tue 07:12:37 AM 41.8410 11.9290 296° West 292 336 8,100 2,533 Climbing FlightAware ADS-B
Tue 07:13:12 AM 41.8610 11.8680 294° West 287 330 9,700 1,800 Climbing FlightAware ADS-B
Tue 07:14:07 AM 41.8910 11.7780 294° West 310 357 10,800 1,067 Climbing FlightAware ADS-B
Tue 07:14:42 AM 41.9130 11.7110 294° West 349 402 11,300 1,500 Climbing FlightAware ADS-B
Tue 07:15:27 AM 41.9490 11.6020 294° West 368 423 12,800 2,067 Climbing FlightAware ADS-B
Tue 07:16:12 AM 41.9800 11.5070 294° West 370 426 14,400 1,906 Climbing FlightAware ADS-B
Tue 07:16:52 AM 42.0070 11.4230 293° West 377 434 15,500 1,575 Climbing FlightAware ADS-B
Tue 07:17:32 AM 42.0360 11.3340 294° West 384 442 16,500 1,341 Climbing FlightAware ADS-B
Tue 07:18:17 AM 42.0680 11.2330 293° West 395 455 17,400 1,412 Climbing FlightAware ADS-B
Tue 07:18:57 AM 42.0980 11.1410 294° West 403 464 18,500 1,553 Climbing FlightAware ADS-B
Tue 07:19:42 AM 42.1310 11.0380 293° West 405 466 19,600 1,400 Climbing FlightAware ADS-B
Tue 07:20:27 AM 42.1650 10.9320 293° West 412 474 20,600 1,271 Climbing FlightAware ADS-B
Tue 07:21:07 AM 42.1950 10.8360 293° West 419 482 21,400 1,200 Climbing FlightAware ADS-B
Tue 07:21:52 AM 42.2300 10.7280 294° West 423 487 22,300 1,059 Climbing FlightAware ADS-B
Tue 07:22:32 AM 42.2660 10.6320 297° West 439 505 22,900 975 Climbing FlightAware ADS-B
Tue 07:23:12 AM 42.3140 10.5410 306° West 447 514 23,600 1,059 Climbing FlightAware ADS-B
Tue 07:23:57 AM 42.3810 10.4480 314° West 458 527 24,400 1,059 Climbing FlightAware ADS-B
Tue 07:24:37 AM 42.4460 10.3720 319° Northwest 469 540 25,100 1,059 Climbing FlightAware ADS-B
Tue 07:25:22 AM 42.5200 10.2840 319° Northwest 471 542 25,900 988 Climbing FlightAware ADS-B
Tue 07:26:02 AM 42.5850 10.2040 318° Northwest 475 547 26,500 750 Climbing FlightAware ADS-B
Tue 07:26:42 AM 42.6510 10.1230 318° Northwest 481 554 26,900 706 Climbing FlightAware ADS-B
Tue 07:27:27 AM 42.7260 10.0320 318° Northwest 481 554 27,500 776 Climbing FlightAware ADS-B
Tue 07:28:07 AM 42.7920 9.9510 318° Northwest 488 562 28,000 675 Climbing FlightAware ADS-B
Tue 07:28:47 AM 42.8590 9.8680 318° Northwest 491 565 28,400 706 Climbing FlightAware ADS-B
Tue 07:29:32 AM 42.9150 9.7530 304° West 480 552 29,000 776 Climbing FlightAware ADS-B
Tue 07:30:12 AM 42.9490 9.6380 292° West 484 557 29,500 706 Climbing FlightAware ADS-B
Tue 07:30:57 AM 42.9860 9.5110 292° West 487 560 30,000 675 Climbing FlightAware ADS-B
Tue 07:31:32 AM 43.0130 9.4220 293° West 486 559 30,400 847 Climbing FlightAware ADS-B
Tue 07:32:22 AM 43.0570 9.2730 292° West 482 555 31,200 867 Climbing FlightAware ADS-B
Tue 07:33:02 AM 43.0910 9.1580 292° West 481 554 31,700 675 Climbing FlightAware ADS-B
Tue 07:33:42 AM 43.1240 9.0470 292° West 481 554 32,100 565 Climbing FlightAware ADS-B
Tue 07:34:27 AM 43.1630 8.9190 293° West 481 554 32,500 565 Climbing FlightAware ADS-B
Tue 07:35:07 AM 43.1990 8.8040 293° West 481 554 32,900 635 Climbing FlightAware ADS-B
Tue 07:35:52 AM 43.2360 8.6810 292° West 479 551 33,400 750 Climbing FlightAware ADS-B
Tue 07:36:27 AM 43.2670 8.5790 293° West 481 554 33,900 480 Climbing FlightAware ADS-B
Tue 07:37:07 AM 43.3010 8.4630 292° West 485 558 34,000 67 Climbing FlightAware ADS-B
Tue 07:37:57 AM 43.3460 8.3140 293° West 483 556 34,000  Level FlightAware ADS-B
Tue 07:38:37 AM 43.3800 8.2020 293° West 482 555 34,000  Level FlightAware ADS-B
Tue 07:39:22 AM 43.4170 8.0760 292° West 484 557 34,000  Level FlightAware ADS-B
Tue 07:40:02 AM 43.4510 7.9610 292° West 485 558 34,000  Level FlightAware ADS-B
Tue 07:40:42 AM 43.4850 7.8460 292° West 485 558 34,000  Level FlightAware ADS-B
Tue 07:41:27 AM 43.5230 7.7150 292° West 484 557 34,000  Level FlightAware ADS-B
Tue 07:42:07 AM 43.5560 7.6010 292° West 484 557 34,000  Level FlightAware ADS-B
Tue 07:42:52 AM 43.5930 7.4760 292° West 485 558 34,000  Level FlightAware ADS-B
Tue 07:43:32 AM 43.6350 7.3620 297° West 492 566 34,000  Level FlightAware ADS-B
Tue 07:44:12 AM 43.6870 7.2600 305° West 502 578 34,000  Level FlightAware ADS-B
Tue 07:44:57 AM 43.7570 7.1550 313° West 492 566 34,000  Level FlightAware ADS-B
Tue 07:45:37 AM 43.7990 7.0440 298° West 492 566 34,000  Level FlightAware ADS-B
Tue 07:46:22 AM 43.8540 6.9210 302° West 494 568 34,000  Level FlightAware ADS-B
Tue 07:46:57 AM 43.8920 6.8350 302° West 495 570 34,000  Level FlightAware ADS-B
Tue 07:47:42 AM 43.9480 6.7080 302° West 495 570 34,000  Level FlightAware ADS-B
Tue 07:48:27 AM 44.0030 6.5830 301° West 494 568 34,000  Level FlightAware ADS-B
Tue 07:49:07 AM 44.0500 6.4770 302° West 493 567 34,000  Level FlightAware ADS-B
Tue 07:49:52 AM 44.1030 6.3580 302° West 496 571 34,000  Level FlightAware ADS-B
Tue 07:50:32 AM 44.1520 6.2480 302° West 492 566 34,000  Level FlightAware ADS-B
Tue 07:51:12 AM 44.1990 6.1410 302° West 491 565 34,000  Level FlightAware ADS-B
Tue 07:51:57 AM 44.2520 6.0220 302° West 494 568 34,000  Level FlightAware ADS-B
Tue 07:52:37 AM 44.3110 5.9170 308° West 504 580 34,000  Level FlightAware ADS-B
Tue 07:53:22 AM 44.3820 5.8150 314° West 503 579 34,000  Level FlightAware ADS-B
Tue 07:54:02 AM 44.4470 5.7220 314° West 504 580 34,000  Level FlightAware ADS-B
Tue 07:54:42 AM 44.5150 5.6250 315° West 504 580 34,000  Level FlightAware ADS-B
Tue 07:55:27 AM 44.5890 5.5170 314° West 504 580 34,000  Level FlightAware ADS-B
Tue 07:56:07 AM 44.6540 5.4230 314° West 505 581 34,000  Level FlightAware ADS-B
Tue 07:56:52 AM 44.7250 5.3200 314° West 506 582 34,000 141 Level FlightAware ADS-B
Tue 07:57:32 AM 44.7900 5.2250 314° West 507 583 34,200 525 Climbing FlightAware ADS-B
Tue 07:58:12 AM 44.8570 5.1290 315° West 507 583 34,700 635 Climbing FlightAware ADS-B
Tue 07:58:57 AM 44.9310 5.0240 315° West 507 583 35,100 635 Climbing FlightAware ADS-B
Tue 07:59:37 AM 44.9960 4.9310 315° West 502 578 35,600 675 Climbing FlightAware ADS-B
Tue 08:00:17 AM 45.0610 4.8400 315° West 497 572 36,000 282 Climbing FlightAware ADS-B
Tue 08:01:02 AM 45.1340 4.7370 315° West 494 568 36,000  Level FlightAware ADS-B
Tue 08:01:42 AM 45.1880 4.6310 306° West 491 565 36,000  Level FlightAware ADS-B
Tue 08:02:27 AM 45.2440 4.5090 303° West 497 572 36,000  Level FlightAware ADS-B
Tue 08:03:07 AM 45.2950 4.3980 303° West 495 570 36,000  Level FlightAware ADS-B
Tue 08:03:52 AM 45.3500 4.2780 303° West 494 568 36,000  Level FlightAware ADS-B
Tue 08:04:32 AM 45.4000 4.1680 303° West 491 565 36,000  Level FlightAware ADS-B
Tue 08:05:12 AM 45.4480 4.0610 303° West 490 564 36,000  Level FlightAware ADS-B
Tue 08:05:57 AM 45.5050 3.9350 303° West 492 566 36,000  Level FlightAware ADS-B
Tue 08:06:37 AM 45.5540 3.8250 302° West 491 565 36,000  Level FlightAware ADS-B
Tue 08:07:22 AM 45.6070 3.7080 303° West 491 565 36,000  Level FlightAware ADS-B
Tue 08:07:57 AM 45.6490 3.6140 303° West 493 567 36,000  Level FlightAware ADS-B
Tue 08:08:42 AM 45.7050 3.4890 303° West 493 567 36,000  Level FlightAware ADS-B
Tue 08:09:27 AM 45.7580 3.3680 302° West 493 567 36,000  Level FlightAware ADS-B
Tue 08:10:07 AM 45.8100 3.2510 303° West 494 568 36,000  Level FlightAware ADS-B
Tue 08:10:52 AM 45.8630 3.1290 302° West 495 570 36,000  Level FlightAware ADS-B
Tue 08:11:32 AM 45.9100 3.0180 301° West 493 567 36,000  Level FlightAware ADS-B
Tue 08:12:12 AM 45.9460 2.9000 294° West 487 560 36,000  Level FlightAware ADS-B
Tue 08:12:57 AM 45.9750 2.7580 286° West 482 555 36,000  Level FlightAware ADS-B
Tue 08:13:27 AM 45.9860 2.6620 279° West 477 549 36,000  Level FlightAware ADS-B
Tue 08:14:47 AM 45.9860 2.4110 270° West 471 542 36,000  Level FlightAware ADS-B
Tue 08:15:22 AM 45.9850 2.3030 269° West 476 548 36,000  Level FlightAware ADS-B
Tue 08:16:12 AM 45.9830 2.1450 269° West 478 550 36,000  Level FlightAware ADS-B
Tue 08:16:52 AM 45.9810 2.0220 269° West 479 551 36,000  Level FlightAware ADS-B
Tue 08:17:32 AM 45.9790 1.8960 269° West 478 550 36,000  Level FlightAware ADS-B
Tue 08:18:17 AM 45.9760 1.7500 268° West 478 550 36,000  Level FlightAware ADS-B
Tue 08:18:52 AM 45.9740 1.6410 269° West 476 548 36,000  Level FlightAware ADS-B
Tue 08:19:42 AM 45.9700 1.4820 268° West 477 549 36,000  Level FlightAware ADS-B
Tue 08:20:37 AM 45.9660 1.3040 268° West 476 548 36,000  Level FlightAware ADS-B
Tue 08:21:17 AM 45.9630 1.1900 268° West 477 549 36,000  Level FlightAware ADS-B
Tue 08:21:57 AM 45.9590 1.0820 267° West 477 549 36,000  Level FlightAware ADS-B
Tue 08:22:37 AM 45.9550 0.9740 267° West 477 549 36,000  Level FlightAware ADS-B
Tue 08:23:37 AM 45.9510 0.7490 269° West 483 556 36,000  Level FlightAware ADS-B
Tue 08:24:47 AM 45.9450 0.5200 268° West 484 557 36,000  Level FlightAware ADS-B
Tue 08:27:00 AM 45.9617 0.1214 274° West  Level FlightAware Approximate
Tue 08:28:00 AM 45.9688 -0.0584 273° West  Level FlightAware Approximate
Tue 08:29:00 AM 45.9756 -0.2384 273° West  Level FlightAware Approximate
Tue 08:30:00 AM 45.9822 -0.4183 273° West  Level FlightAware Approximate
Tue 08:31:00 AM 45.9884 -0.5983 273° West  Level FlightAware Approximate
Tue 08:32:00 AM 45.9944 -0.7784 273° West  Level FlightAware Approximate
Tue 08:33:00 AM 46.0000 -0.9585 273° West  Level FlightAware Approximate
Tue 08:33:52 AM 45.9840 -1.2210 273° West 493 567 36,000  Level FlightAware ADS-B
Tue 08:34:00 AM 46.0054 -1.1386 273° West  Level FlightAware Approximate
Tue 08:34:37 AM 46.0070 -1.3790 282° West 494 568 36,000  Level FlightAware ADS-B
Tue 08:35:17 AM 46.0270 -1.5100 282° West 496 571 36,000  Level FlightAware ADS-B
Tue 08:36:02 AM 46.0480 -1.6580 282° West 495 570 36,000  Level FlightAware ADS-B
Tue 08:36:42 AM 46.0670 -1.7860 282° West 495 570 36,000  Level FlightAware ADS-B
Tue 08:37:27 AM 46.0870 -1.9280 282° West 493 567 36,000  Level FlightAware ADS-B
Tue 08:38:07 AM 46.1040 -2.0550 281° West 492 566 36,000  Level FlightAware ADS-B
Tue 08:38:47 AM 46.1230 -2.1870 282° West 492 566 36,000  Level FlightAware ADS-B
Tue 08:39:32 AM 46.1430 -2.3330 281° West 492 566 36,000  Level FlightAware ADS-B
Tue 08:40:17 AM 46.1620 -2.4740 281° West 491 565 36,000  Level FlightAware ADS-B
Tue 08:40:57 AM 46.1800 -2.6050 281° West 490 564 36,000  Level FlightAware ADS-B
Tue 08:41:37 AM 46.1970 -2.7330 281° West 489 563 36,000  Level FlightAware ADS-B
Tue 08:42:17 AM 46.2130 -2.8520 281° West 489 563 36,000  Level FlightAware ADS-B
Tue 08:43:02 AM 46.2330 -3.0000 281° West 489 563 36,000  Level FlightAware ADS-B
Tue 08:43:47 AM 46.2520 -3.1470 281° West 489 563 36,000  Level FlightAware ADS-B
Tue 08:44:22 AM 46.2530 -3.1580 277° West 490 564 36,000  Level FlightAware ADS-B
Tue 08:45:07 AM 46.2840 -3.3920 281° West 491 565 36,000  Level FlightAware ADS-B
Tue 08:46:27 AM 46.3170 -3.6540 280° West 494 568 36,000  Level FlightAware ADS-B
Tue 08:47:12 AM 46.3370 -3.7800 283° West 495 570 36,000  Level FlightAware ADS-B
Tue 08:47:57 AM 46.3640 -3.9330 284° West 494 568 36,000  Level FlightAware ADS-B
Tue 08:48:32 AM 46.3850 -4.0570 284° West 493 567 36,000  Level FlightAware ADS-B
Tue 08:49:32 AM 46.4190 -4.2470 285° West 489 563 36,000  Level FlightAware ADS-B
Tue 08:50:17 AM 46.4420 -4.3820 284° West 490 564 36,000  Level FlightAware ADS-B
Tue 08:50:57 AM 46.4610 -4.4910 284° West 490 564 36,000  Level FlightAware ADS-B
Tue 08:51:42 AM 46.4870 -4.6540 283° West 490 564 36,000  Level FlightAware ADS-B
Tue 08:52:22 AM 46.5040 -4.7630 283° West 490 564 36,000  Level FlightAware ADS-B
Tue 08:53:02 AM 46.5220 -4.8720 284° West 490 564 36,000  Level FlightAware ADS-B
Tue 08:53:47 AM 46.5550 -5.0540 285° West 485 558 36,000  Level FlightAware ADS-B
Tue 08:54:27 AM 46.5780 -5.1910 284° West 486 559 36,000  Level FlightAware ADS-B
Tue 08:55:12 AM 46.6000 -5.3260 283° West 484 557 36,000  Level FlightAware ADS-B
Tue 08:55:52 AM 46.6190 -5.4420 283° West 483 556 36,000  Level FlightAware ADS-B
Tue 08:56:42 AM 46.6460 -5.6100 283° West 482 555 36,000  Level FlightAware ADS-B
Tue 08:57:22 AM 46.6640 -5.7230 283° West 483 556 36,000  Level FlightAware ADS-B
Tue 08:58:12 AM 46.6920 -5.9000 283° West 483 556 36,000  Level FlightAware ADS-B
Tue 08:59:07 AM 46.7160 -6.0590 282° West 480 552 36,000  Level FlightAware ADS-B
Tue 08:59:52 AM 46.7200 -6.0860 282° West 480 552 36,000  Level FlightAware ADS-B
Tue 09:00:32 AM 46.7350 -6.1930 282° West 480 552 36,000  Level FlightAware ADS-B
Tue 09:01:12 AM 46.7510 -6.3010 282° West 480 552 36,000  Level FlightAware ADS-B
Tue 09:01:52 AM 46.7670 -6.4090 282° West 480 552 36,000  Level FlightAware ADS-B
Tue 09:02:32 AM 46.7820 -6.5170 282° West 480 552 36,000  Level FlightAware ADS-B
Tue 09:03:22 AM 46.8020 -6.6520 282° West 480 552 36,000  Level FlightAware ADS-B
Tue 09:04:02 AM 46.8180 -6.7590 282° West 480 552 36,000  Level FlightAware ADS-B
Tue 09:04:42 AM 46.8330 -6.8670 282° West 480 552 36,000  Level FlightAware ADS-B
Tue 09:05:22 AM 46.8490 -6.9750 282° West 480 552 36,000  Level FlightAware ADS-B
Tue 09:06:02 AM 46.8650 -7.0830 282° West 480 552 36,000  Level FlightAware ADS-B
Tue 09:06:52 AM 46.8840 -7.2180 282° West 480 552 36,000  Level FlightAware ADS-B
Tue 09:07:32 AM 46.9000 -7.3270 282° West 480 552 36,000  Level FlightAware ADS-B
Tue 09:08:12 AM 46.9160 -7.4350 282° West 480 552 36,000  Level FlightAware ADS-B
Tue 09:08:52 AM 46.9310 -7.5430 282° West 480 552 36,000 -15 Level FlightAware ADS-B
Tue 09:11:00 AM 47.0115 -7.9163 288° West  Level Estimated
Tue 09:12:00 AM 47.0489 -8.0917 287° West  Level Estimated
Tue 09:13:00 AM 47.0859 -8.2673 287° West  Level Estimated
Tue 09:14:00 AM 47.1227 -8.4432 287° West  Level Estimated
Tue 09:15:00 AM 47.1592 -8.6193 287° West  Level Estimated
Tue 09:16:00 AM 47.1955 -8.7956 287° West  Level Estimated
Tue 09:17:00 AM 47.2315 -8.9722 287° West  Level Estimated
Tue 09:18:00 AM 47.2672 -9.1491 287° West  Level Estimated
Tue 09:19:00 AM 47.3026 -9.3261 287° West  Level Estimated
Tue 09:20:00 AM 47.3378 -9.5034 286° West  Level Estimated
Tue 09:21:00 AM 47.3727 -9.6810 286° West  Level Estimated
Tue 09:22:00 AM 47.4073 -9.8587 286° West  Level Estimated
Tue 09:23:00 AM 47.4416 -10.0367 286° West  Level Estimated
Tue 09:24:00 AM 47.4757 -10.2150 286° West  Level Estimated
Tue 09:25:00 AM 47.5095 -10.3935 286° West  Level Estimated
Tue 09:26:00 AM 47.5430 -10.5722 286° West  Level Estimated
Tue 09:27:00 AM 47.5762 -10.7511 285° West  Level Estimated
Tue 09:28:00 AM 47.6092 -10.9302 285° West  Level Estimated
Tue 09:29:00 AM 47.6419 -11.1096 285° West  Level Estimated
Tue 09:30:00 AM 47.6743 -11.2892 285° West  Level Estimated
Tue 09:31:00 AM 47.7064 -11.4690 285° West  Level Estimated
Tue 09:32:00 AM 47.7383 -11.6491 285° West  Level Estimated
Tue 09:33:00 AM 47.7698 -11.8293 285° West  Level Estimated
Tue 09:34:00 AM 47.8011 -12.0098 285° West  Level Estimated
Tue 09:35:00 AM 47.8321 -12.1905 284° West  Level Estimated
Tue 09:36:00 AM 47.8628 -12.3714 284° West  Level Estimated
Tue 09:37:00 AM 47.8932 -12.5525 284° West  Level Estimated
Tue 09:38:00 AM 47.9233 -12.7339 284° West  Level Estimated
Tue 09:39:00 AM 47.9532 -12.9154 284° West  Level Estimated
Tue 09:40:00 AM 47.9827 -13.0972 284° West  Level Estimated
Tue 09:41:00 AM 48.0120 -13.2792 284° West  Level Estimated
Tue 09:42:00 AM 48.0410 -13.4613 283° West  Level Estimated
Tue 09:43:00 AM 48.0697 -13.6437 283° West  Level Estimated
Tue 09:44:00 AM 48.0981 -13.8263 283° West  Level Estimated
Tue 09:45:00 AM 48.1262 -14.0090 283° West  Level Estimated
Tue 09:46:00 AM 48.1540 -14.1920 283° West  Level Estimated
Tue 09:47:00 AM 48.1816 -14.3752 283° West  Level Estimated
Tue 09:48:00 AM 48.2088 -14.5585 283° West  Level Estimated
Tue 09:49:00 AM 48.2358 -14.7421 282° West  Level Estimated
Tue 09:50:00 AM 48.2625 -14.9259 282° West  Level Estimated
Tue 09:51:00 AM 48.2888 -15.1098 282° West  Level Estimated
Tue 09:52:00 AM 48.3149 -15.2940 282° West  Level Estimated
Tue 09:53:00 AM 48.3407 -15.4783 282° West  Level Estimated
Tue 09:54:00 AM 48.3662 -15.6628 282° West  Level Estimated
Tue 09:55:00 AM 48.3914 -15.8475 282° West  Level Estimated
Tue 09:56:00 AM 48.4163 -16.0323 282° West  Level Estimated
Tue 09:57:00 AM 48.4409 -16.2174 281° West  Level Estimated
Tue 09:58:00 AM 48.4652 -16.4026 281° West  Level Estimated
Tue 09:59:00 AM 48.4892 -16.5880 281° West  Level Estimated
Tue 10:00:00 AM 48.5129 -16.7736 281° West  Level Estimated
Tue 10:01:00 AM 48.5363 -16.9594 281° West  Level Estimated
Tue 10:02:00 AM 48.5594 -17.1453 281° West  Level Estimated
Tue 10:03:00 AM 48.5822 -17.3314 281° West  Level Estimated
Tue 10:04:00 AM 48.6047 -17.5177 280° West  Level Estimated
Tue 10:05:00 AM 48.6269 -17.7041 280° West  Level Estimated
Tue 10:06:00 AM 48.6488 -17.8907 280° West  Level Estimated
Tue 10:07:00 AM 48.6705 -18.0774 280° West  Level Estimated
Tue 10:08:00 AM 48.6918 -18.2643 280° West  Level Estimated
Tue 10:09:00 AM 48.7128 -18.4514 280° West  Level Estimated
Tue 10:10:00 AM 48.7335 -18.6386 280° West  Level Estimated
Tue 10:11:00 AM 48.7539 -18.8260 279° West  Level Estimated
Tue 10:12:00 AM 48.7740 -19.0135 279° West  Level Estimated
Tue 10:13:00 AM 48.7938 -19.2012 279° West  Level Estimated
Tue 10:14:00 AM 48.8132 -19.3890 279° West  Level Estimated
Tue 10:14:00 AM 47.0000 -20.0000 274° West 454 522 35,000  Level ETMS Enhanced Traffic Management System
Tue 10:15:00 AM 48.8324 -19.5770 279° West  Level Estimated
Tue 10:16:00 AM 48.8513 -19.7651 279° West  Level Estimated
Tue 10:17:00 AM 48.8699 -19.9534 279° West  Level Estimated
Tue 10:18:00 AM 48.8881 -20.1418 278° West  Level Estimated
Tue 10:19:00 AM 48.9061 -20.3303 278° West  Level Estimated
Tue 10:20:00 AM 47.0491 -21.2940 273° West 454 522 35,000  Level FlightAware Transoceanic
Tue 10:21:00 AM 47.0550 -21.4791 273° West 454 522 35,000  Level FlightAware Transoceanic
Tue 10:22:00 AM 47.0605 -21.6641 272° West 454 522 35,000  Level FlightAware Transoceanic
Tue 10:23:00 AM 47.0657 -21.8493 272° West 454 522 35,000  Level FlightAware Transoceanic
Tue 10:24:00 AM 47.0706 -22.0344 272° West 454 522 35,000  Level FlightAware Transoceanic
Tue 10:25:00 AM 47.0753 -22.2196 272° West 454 522 35,000  Level FlightAware Transoceanic
Tue 10:26:00 AM 47.0796 -22.4048 272° West 454 522 35,000  Level FlightAware Transoceanic
Tue 10:27:00 AM 47.0837 -22.5901 272° West 454 522 35,000  Level FlightAware Transoceanic
Tue 10:28:00 AM 47.0874 -22.7754 272° West 454 522 35,000  Level FlightAware Transoceanic
Tue 10:29:00 AM 47.0908 -22.9606 271° West 454 522 35,000  Level FlightAware Transoceanic
Tue 10:30:00 AM 47.0940 -23.1460 271° West 454 522 35,000  Level FlightAware Transoceanic
Tue 10:31:00 AM 47.0968 -23.3313 271° West 454 522 35,000  Level FlightAware Transoceanic
Tue 10:32:00 AM 47.0994 -23.5167 271° West 454 522 35,000  Level FlightAware Transoceanic
Tue 10:33:00 AM 47.1016 -23.7020 271° West 454 522 35,000  Level FlightAware Transoceanic
Tue 10:34:00 AM 47.1035 -23.8874 271° West 454 522 35,000  Level FlightAware Transoceanic
Tue 10:35:00 AM 47.1052 -24.0728 271° West 454 522 35,000  Level FlightAware Transoceanic
Tue 10:36:00 AM 47.1065 -24.2583 271° West 454 522 35,000  Level FlightAware Transoceanic
Tue 10:37:00 AM 47.1076 -24.4437 270° West 454 522 35,000  Level FlightAware Transoceanic
Tue 10:38:00 AM 47.1083 -24.6291 270° West 454 522 35,000  Level FlightAware Transoceanic
Tue 10:39:00 AM 47.1088 -24.8146 270° West 454 522 35,000  Level FlightAware Transoceanic
Tue 10:40:00 AM 47.1089 -25.0000 270° West 454 522 35,000  Level FlightAware Transoceanic
Tue 10:41:00 AM 47.1088 -25.1854 270° West 454 522 35,000  Level FlightAware Transoceanic
Tue 10:42:00 AM 47.1083 -25.3709 270° West 454 522 35,000  Level FlightAware Transoceanic
Tue 10:43:00 AM 47.1076 -25.5563 270° West 454 522 35,000  Level FlightAware Transoceanic
Tue 10:44:00 AM 47.1065 -25.7417 269° West 454 522 35,000  Level FlightAware Transoceanic
Tue 10:45:00 AM 47.1052 -25.9272 269° West 454 522 35,000  Level FlightAware Transoceanic
Tue 10:46:00 AM 47.1035 -26.1126 269° West 454 522 35,000  Level FlightAware Transoceanic
Tue 10:47:00 AM 47.1016 -26.2980 269° West 454 522 35,000  Level FlightAware Transoceanic
Tue 10:48:00 AM 47.0994 -26.4833 269° West 454 522 35,000  Level FlightAware Transoceanic
Tue 10:49:00 AM 47.0968 -26.6687 269° West 454 522 35,000  Level FlightAware Transoceanic
Tue 10:50:00 AM 47.0940 -26.8540 269° West 454 522 35,000  Level FlightAware Transoceanic
Tue 10:51:00 AM 47.0908 -27.0394 269° West 454 522 35,000  Level FlightAware Transoceanic
Tue 10:52:00 AM 47.0874 -27.2246 268° West 454 522 35,000  Level FlightAware Transoceanic
Tue 10:53:00 AM 47.0837 -27.4099 268° West 454 522 35,000  Level FlightAware Transoceanic
Tue 10:54:00 AM 47.0796 -27.5952 268° West 454 522 35,000  Level FlightAware Transoceanic
Tue 10:55:00 AM 47.0753 -27.7804 268° West 454 522 35,000  Level FlightAware Transoceanic
Tue 10:56:00 AM 47.0706 -27.9656 268° West 454 522 35,000  Level FlightAware Transoceanic
Tue 10:57:00 AM 47.0657 -28.1507 268° West 454 522 35,000  Level FlightAware Transoceanic
Tue 10:58:00 AM 47.0605 -28.3359 268° West 454 522 35,000  Level FlightAware Transoceanic
Tue 10:59:00 AM 47.0550 -28.5209 267° West 454 522 35,000  Level FlightAware Transoceanic
Tue 11:00:00 AM 47.0491 -28.7060 267° West 454 522 35,000  Level FlightAware Transoceanic
Tue 11:01:00 AM 47.0430 -28.8910 267° West 454 522 35,000  Level FlightAware Transoceanic
Tue 11:02:00 AM 47.0366 -29.0759 267° West 454 522 35,000  Level FlightAware Transoceanic
Tue 11:03:00 AM 47.0299 -29.2609 267° West 454 522 35,000  Level FlightAware Transoceanic
Tue 11:04:00 AM 47.0228 -29.4457 267° West 454 522 35,000  Level FlightAware Transoceanic
Tue 11:05:00 AM 47.0155 -29.6305 267° West 454 522 35,000  Level FlightAware Transoceanic
Tue 11:06:00 AM 47.0079 -29.8153 266° West 454 522 35,000  Level FlightAware Transoceanic
Tue 11:07:00 AM 47.0184 -29.9991 275° West  Level Estimated
Tue 11:08:00 AM 47.0285 -30.1829 275° West  Level Estimated
Tue 11:09:00 AM 47.0384 -30.3668 275° West  Level Estimated
Tue 11:10:00 AM 47.0480 -30.5508 274° West  Level Estimated
Tue 11:11:00 AM 47.0573 -30.7348 274° West  Level Estimated
Tue 11:12:00 AM 47.0663 -30.9189 274° West  Level Estimated
Tue 11:13:00 AM 47.0750 -31.1031 274° West  Level Estimated
Tue 11:14:00 AM 47.0834 -31.2873 274° West  Level Estimated
Tue 11:15:00 AM 47.0915 -31.4716 274° West  Level Estimated
Tue 11:16:00 AM 47.0993 -31.6559 274° West  Level Estimated
Tue 11:17:00 AM 47.1068 -31.8403 273° West  Level Estimated
Tue 11:18:00 AM 47.1140 -32.0247 273° West  Level Estimated
Tue 11:19:00 AM 47.1209 -32.2092 273° West  Level Estimated
Tue 11:20:00 AM 47.1276 -32.3937 273° West  Level Estimated
Tue 11:21:00 AM 47.1339 -32.5783 273° West  Level Estimated
Tue 11:22:00 AM 47.1399 -32.7630 273° West  Level Estimated
Tue 11:23:00 AM 47.1457 -32.9476 273° West  Level Estimated
Tue 11:24:00 AM 47.1511 -33.1323 273° West  Level Estimated
Tue 11:25:00 AM 47.1563 -33.3171 272° West  Level Estimated
Tue 11:26:00 AM 47.1611 -33.5018 272° West  Level Estimated
Tue 11:27:00 AM 47.1657 -33.6866 272° West  Level Estimated
Tue 11:28:00 AM 47.1699 -33.8715 272° West  Level Estimated
Tue 11:29:00 AM 47.1739 -34.0563 272° West  Level Estimated
Tue 11:30:00 AM 47.1775 -34.2412 272° West  Level Estimated
Tue 11:31:00 AM 47.1809 -34.4261 272° West  Level Estimated
Tue 11:32:00 AM 47.1839 -34.6111 271° West  Level Estimated
Tue 11:33:00 AM 47.1867 -34.7960 271° West  Level Estimated
Tue 11:34:00 AM 47.1892 -34.9810 271° West  Level Estimated
Tue 11:35:00 AM 47.1913 -35.1660 271° West  Level Estimated
Tue 11:36:00 AM 47.1932 -35.3510 271° West  Level Estimated
Tue 11:37:00 AM 47.1948 -35.5360 271° West  Level Estimated
Tue 11:38:00 AM 47.1960 -35.7211 271° West  Level Estimated
Tue 11:39:00 AM 47.1970 -35.9061 271° West  Level Estimated
Tue 11:40:00 AM 47.1977 -36.0911 270° West  Level Estimated
Tue 11:41:00 AM 47.1981 -36.2762 270° West  Level Estimated
Tue 11:42:00 AM 47.1982 -36.4612 270° West  Level Estimated
Tue 11:43:00 AM 47.1980 -36.6463 270° West  Level Estimated
Tue 11:44:00 AM 47.1974 -36.8313 270° West  Level Estimated
Tue 11:45:00 AM 47.1966 -37.0164 270° West  Level Estimated
Tue 11:46:00 AM 47.1955 -37.2014 270° West  Level Estimated
Tue 11:47:00 AM 47.1941 -37.3864 269° West  Level Estimated
Tue 11:48:00 AM 47.1924 -37.5714 269° West  Level Estimated
Tue 11:49:00 AM 47.1904 -37.7564 269° West  Level Estimated
Tue 11:50:00 AM 47.1881 -37.9414 269° West  Level Estimated
Tue 11:51:00 AM 47.1855 -38.1264 269° West  Level Estimated
Tue 11:52:00 AM 47.1826 -38.3113 269° West  Level Estimated
Tue 11:53:00 AM 47.1794 -38.4963 269° West  Level Estimated
Tue 11:54:00 AM 47.1759 -38.6811 268° West  Level Estimated
Tue 11:55:00 AM 47.1721 -38.8660 268° West  Level Estimated
Tue 11:56:00 AM 47.1681 -39.0509 268° West  Level Estimated
Tue 11:57:00 AM 47.1637 -39.2357 268° West  Level Estimated
Tue 11:58:00 AM 47.1590 -39.4205 268° West  Level Estimated
Tue 11:59:00 AM 47.1540 -39.6053 268° West  Level Estimated
Tue 12:00:00 PM 47.1488 -39.7900 268° West  Level Estimated
Tue 12:01:00 PM 47.1432 -39.9747 268° West  Level Estimated
Tue 12:02:00 PM 47.1373 -40.1593 267° West  Level Estimated
Tue 12:03:00 PM 47.1311 -40.3439 267° West  Level Estimated
Tue 12:04:00 PM 47.1247 -40.5285 267° West  Level Estimated
Tue 12:05:00 PM 47.1179 -40.7130 267° West  Level Estimated
Tue 12:06:00 PM 47.1109 -40.8974 267° West  Level Estimated
Tue 12:07:00 PM 47.1035 -41.0818 267° West  Level Estimated
Tue 12:08:00 PM 47.0959 -41.2662 267° West  Level Estimated
Tue 12:09:00 PM 47.0879 -41.4505 266° West  Level Estimated
Tue 12:10:00 PM 47.0797 -41.6348 266° West  Level Estimated
Tue 12:11:00 PM 47.0712 -41.8189 266° West  Level Estimated
Tue 12:12:00 PM 47.0623 -42.0031 266° West  Level Estimated
Tue 12:13:00 PM 47.0532 -42.1871 266° West  Level Estimated
Tue 12:14:00 PM 47.0438 -42.3712 266° West  Level Estimated
Tue 12:15:00 PM 47.0341 -42.5551 266° West  Level Estimated
Tue 12:16:00 PM 47.0241 -42.7390 266° West  Level Estimated
Tue 12:17:00 PM 47.0138 -42.9228 265° West  Level Estimated
Tue 12:18:00 PM 47.0032 -43.1065 265° West  Level Estimated
Tue 12:19:00 PM 46.9923 -43.2901 265° West  Level Estimated
Tue 12:20:00 PM 46.9811 -43.4737 265° West  Level Estimated
Tue 12:21:00 PM 46.9697 -43.6572 265° West  Level Estimated
Tue 12:22:00 PM 46.9579 -43.8407 265° West  Level Estimated
Tue 12:23:00 PM 46.9458 -44.0240 265° West  Level Estimated
Tue 12:24:00 PM 46.9335 -44.2073 264° West  Level Estimated
Tue 12:25:00 PM 46.9208 -44.3904 264° West  Level Estimated
Tue 12:26:00 PM 46.9079 -44.5735 264° West  Level Estimated
Tue 12:27:00 PM 46.8946 -44.7565 264° West  Level Estimated
Tue 12:28:00 PM 46.8811 -44.9394 264° West  Level Estimated
Tue 12:29:00 PM 46.8673 -45.1222 264° West  Level Estimated
Tue 12:30:00 PM 46.8532 -45.3050 264° West  Level Estimated
Tue 12:31:00 PM 46.8388 -45.4876 263° West  Level Estimated
Tue 12:32:00 PM 46.8242 -45.6701 263° West  Level Estimated
Tue 12:33:00 PM 46.8092 -45.8525 263° West  Level Estimated
Tue 12:34:00 PM 46.7939 -46.0349 263° West  Level Estimated
Tue 12:35:00 PM 46.7784 -46.2171 263° West  Level Estimated
Tue 12:36:00 PM 46.7625 -46.3992 263° West  Level Estimated
Tue 12:37:00 PM 46.7464 -46.5812 263° West  Level Estimated
Tue 12:38:00 PM 46.7300 -46.7631 263° West  Level Estimated
Tue 12:39:00 PM 46.7133 -46.9449 262° West  Level Estimated
Tue 12:40:00 PM 46.6963 -47.1265 262° West  Level Estimated
Tue 12:41:00 PM 46.6790 -47.3081 262° West  Level Estimated
Tue 12:42:00 PM 46.6614 -47.4895 262° West  Level Estimated
Tue 12:43:00 PM 46.6436 -47.6708 262° West  Level Estimated
Tue 12:44:00 PM 46.6254 -47.8520 262° West  Level Estimated
Tue 12:45:00 PM 46.6070 -48.0331 262° West  Level Estimated
Tue 12:46:00 PM 46.5883 -48.2140 262° West  Level Estimated
Tue 12:47:00 PM 46.5693 -48.3949 261° West  Level Estimated
Tue 12:48:00 PM 46.5500 -48.5755 261° West  Level Estimated
Tue 12:48:44 PM 44.6667 -47.2000 253° West 460 529 35,000  Level New York Oceanic (ODAPS)
Tue 12:49:00 PM 46.5304 -48.7561 261° West  Level Estimated
Tue 12:50:00 PM 46.5106 -48.9365 261° West  Level Estimated
Tue 12:51:00 PM 46.4905 -49.1168 261° West  Level Estimated
Tue 12:52:00 PM 46.4700 -49.2970 261° West  Level Estimated
Tue 12:53:00 PM 46.4493 -49.4770 261° West  Level Estimated
Tue 12:54:00 PM 44.4392 -48.1955 252° West 460 529 35,000  Level FlightAware Transoceanic
Tue 12:55:00 PM 44.4005 -48.3606 252° West 460 529 35,000  Level FlightAware Transoceanic
Tue 12:56:00 PM 44.3615 -48.5256 252° West 460 529 35,000  Level FlightAware Transoceanic
Tue 12:57:00 PM 44.3222 -48.6903 252° West 460 529 35,000  Level FlightAware Transoceanic
Tue 12:58:00 PM 44.2828 -48.8548 251° West 460 529 35,000  Level FlightAware Transoceanic
Tue 12:59:00 PM 44.2431 -49.0191 251° West 460 529 35,000  Level FlightAware Transoceanic
Tue 01:00:00 PM 44.2032 -49.1831 251° West 460 529 35,000  Level FlightAware Transoceanic
Tue 01:01:00 PM 44.1630 -49.3469 251° West 460 529 35,000  Level FlightAware Transoceanic
Tue 01:02:00 PM 44.1226 -49.5105 251° West 460 529 35,000  Level FlightAware Transoceanic
Tue 01:02:37 PM 44.1000 -49.5667 252° West 440 506 35,000  Level New York Oceanic (ODAPS)
Tue 01:03:00 PM 44.0820 -49.6739 251° West 460 529 35,000  Level FlightAware Transoceanic
Tue 01:04:00 PM 44.0411 -49.8371 251° West 460 529 35,000  Level FlightAware Transoceanic
Tue 01:05:00 PM 44.0000 -50.0000 263° West 460 529 35,000  Level FlightAware Transoceanic
Tue 01:05:08 PM 44.0000 -50.0000 263° West 451 519 35,000  Level New York Oceanic (ODAPS)
Tue 01:06:00 PM 43.9855 -50.1734 263° West 460 529 35,000  Level FlightAware Transoceanic
Tue 01:07:00 PM 43.9707 -50.3467 263° West 460 529 35,000  Level FlightAware Transoceanic
Tue 01:08:00 PM 43.9557 -50.5199 263° West 440 506 35,000  Level FlightAware Transoceanic
Tue 01:09:00 PM 43.9404 -50.6930 263° West 440 506 35,000  Level FlightAware Transoceanic
Tue 01:10:00 PM 43.9249 -50.8661 263° West 440 506 35,000  Level FlightAware Transoceanic
Tue 01:11:00 PM 43.9091 -51.0390 263° West 451 519 35,000  Level FlightAware Transoceanic
Tue 01:12:00 PM 43.8930 -51.2119 263° West 451 519 35,000  Level FlightAware Transoceanic
Tue 01:13:00 PM 43.8767 -51.3846 262° West 451 519 35,000  Level FlightAware Transoceanic
Tue 01:14:00 PM 43.8601 -51.5573 262° West 451 519 35,000  Level FlightAware Transoceanic
Tue 01:15:00 PM 43.8433 -51.7299 262° West 451 519 35,000  Level FlightAware Transoceanic
Tue 01:16:00 PM 43.8262 -51.9023 262° West 451 519 35,000  Level FlightAware Transoceanic
Tue 01:16:32 PM 43.8167 -51.9667 262° West 444 511 35,000  Level New York Oceanic (ODAPS)
Tue 01:17:00 PM 43.8088 -52.0747 262° West 451 519 35,000  Level FlightAware Transoceanic
Tue 01:18:00 PM 43.7912 -52.2470 262° West 451 519 35,000  Level FlightAware Transoceanic
Tue 01:19:00 PM 43.7733 -52.4191 262° West 451 519 35,000  Level FlightAware Transoceanic
Tue 01:19:01 PM 43.7833 -52.4000 262° West 445 512 35,000  Level New York Oceanic (ODAPS)
Tue 01:20:00 PM 43.7552 -52.5912 262° West 451 519 35,000  Level FlightAware Transoceanic
Tue 01:21:00 PM 43.7368 -52.7632 262° West 451 519 35,000  Level FlightAware Transoceanic
Tue 01:22:00 PM 43.7098 -52.9881 261° West 444 511 35,000  Level FlightAware Transoceanic
Tue 01:23:00 PM 43.6911 -53.1580 261° West 444 511 35,000  Level FlightAware Transoceanic
Tue 01:24:00 PM 43.6721 -53.3277 261° West 444 511 35,000  Level FlightAware Transoceanic
Tue 01:25:00 PM 43.6689 -53.4345 261° West 445 512 35,000  Level FlightAware Transoceanic
Tue 01:26:00 PM 43.6489 -53.6066 261° West 445 512 35,000  Level FlightAware Transoceanic
Tue 01:27:00 PM 43.6287 -53.7785 261° West 445 512 35,000  Level FlightAware Transoceanic
Tue 01:28:00 PM 43.6082 -53.9503 261° West 445 512 35,000  Level FlightAware Transoceanic
Tue 01:29:00 PM 43.5874 -54.1220 260° West 445 512 35,000  Level FlightAware Transoceanic
Tue 01:30:00 PM 43.5664 -54.2935 260° West 445 512 35,000  Level FlightAware Transoceanic
Tue 01:30:20 PM 43.5667 -54.3167 260° West 445 512 35,000  Level New York Oceanic (ODAPS)
Tue 01:31:00 PM 43.5452 -54.4650 260° West 445 512 35,000  Level FlightAware Transoceanic
Tue 01:32:00 PM 43.5237 -54.6363 260° West 445 512 35,000  Level FlightAware Transoceanic
Tue 01:33:00 PM 43.5019 -54.8075 260° West 445 512 35,000  Level FlightAware Transoceanic
Tue 01:34:00 PM 43.4799 -54.9786 260° West 445 512 35,000  Level FlightAware Transoceanic
Tue 01:35:00 PM 43.4576 -55.1495 260° West 445 512 35,000  Level FlightAware Transoceanic
Tue 01:36:00 PM 43.4350 -55.3368 260° West 445 512 35,000  Level FlightAware Transoceanic
Tue 01:37:00 PM 43.4122 -55.5064 259° West 445 512 35,000  Level FlightAware Transoceanic
Tue 01:38:00 PM 43.3892 -55.6759 259° West 445 512 35,000  Level FlightAware Transoceanic
Tue 01:39:00 PM 43.3658 -55.8452 259° West 445 512 35,000  Level FlightAware Transoceanic
Tue 01:40:00 PM 43.3423 -56.0144 259° West 445 512 35,000  Level FlightAware Transoceanic
Tue 01:41:00 PM 43.3185 -56.1835 259° West 445 512 35,000  Level FlightAware Transoceanic
Tue 01:42:00 PM 43.2944 -56.3524 259° West 445 512 35,000  Level FlightAware Transoceanic
Tue 01:43:00 PM 43.2701 -56.5212 259° West 445 512 35,000  Level FlightAware Transoceanic
Tue 01:44:00 PM 43.2455 -56.6899 259° West 445 512 35,000  Level FlightAware Transoceanic
Tue 01:44:44 PM 43.2500 -56.6333 259° West 442 509 35,000  Level New York Oceanic (ODAPS)
Tue 01:45:00 PM 43.2207 -56.8584 259° West 445 512 35,000  Level FlightAware Transoceanic
Tue 01:46:00 PM 43.1956 -57.0268 258° West 445 512 35,000  Level FlightAware Transoceanic
Tue 01:47:00 PM 43.1703 -57.1951 258° West 445 512 35,000  Level FlightAware Transoceanic
Tue 01:47:25 PM 43.1667 -57.1833 268° West 450 518 35,000  Level Moncton Center
Tue 01:48:00 PM 43.1448 -57.3632 258° West 445 512 35,000  Level FlightAware Transoceanic
Tue 01:48:25 PM 43.1167 -57.3667 250° West 440 506 35,000  Level Moncton Center
Tue 01:49:00 PM 43.1190 -57.5312 258° West 445 512 35,000  Level FlightAware Transoceanic
Tue 01:49:25 PM 43.1000 -57.5333 262° West 460 529 35,000  Level Moncton Center
Tue 01:50:00 PM 43.0929 -57.6990 258° West 445 512 35,000  Level FlightAware Transoceanic
Tue 01:50:25 PM 43.0833 -57.7000 262° West 450 518 35,000  Level Moncton Center
Tue 01:51:00 PM 43.0667 -57.8667 268° West 442 509 35,000  Level FlightAware Transoceanic
Tue 01:51:25 PM 43.0500 -57.8500 253° West 450 518 35,000  Level Moncton Center
Tue 01:52:00 PM 43.0630 -58.0309 268° West 442 509 35,000  Level FlightAware Transoceanic
Tue 01:52:25 PM 43.0500 -58.0333 270° West 450 518 35,000  Level Moncton Center
Tue 01:53:25 PM 43.0667 -58.2000 278° West 460 529 35,000  Level Moncton Center
Tue 01:54:25 PM 43.0500 -58.3667 262° West 450 518 35,000  Level Moncton Center
Tue 01:55:25 PM 43.0500 -58.5500 270° West 450 518 35,000  Level Moncton Center
Tue 01:56:25 PM 43.0333 -58.7000 261° West 450 518 35,000  Level Moncton Center
Tue 01:57:25 PM 43.0333 -58.8833 270° West 450 518 35,000  Level Moncton Center
Tue 01:58:25 PM 43.0167 -59.0500 262° West 450 518 35,000  Level Moncton Center
Tue 01:59:25 PM 43.0167 -59.2333 270° West 450 518 35,000  Level Moncton Center
Tue 02:00:25 PM 43.0000 -59.4000 262° West 460 529 35,000  Level Moncton Center
Tue 02:01:25 PM 43.0167 -59.5833 277° West 460 529 35,000  Level Moncton Center
Tue 02:02:25 PM 43.0000 -59.7667 263° West 450 518 35,000  Level Moncton Center
Tue 02:03:25 PM 43.0000 -59.9167 270° West 460 529 35,000  Level Moncton Center
Tue 02:04:25 PM 42.9833 -60.1000 263° West 450 518 35,000  Level Moncton Center
Tue 02:05:25 PM 42.9667 -60.2667 262° West 450 518 35,000  Level Moncton Center
Tue 02:06:25 PM 42.9833 -60.4167 279° West 450 518 35,000  Level Moncton Center
Tue 02:07:25 PM 42.9667 -60.6000 263° West 450 518 35,000  Level Moncton Center
Tue 02:08:25 PM 42.9500 -60.7667 262° West 450 518 35,000  Level Moncton Center
Tue 02:09:25 PM 42.9667 -60.9500 277° West 450 518 35,000  Level Moncton Center
Tue 02:10:25 PM 42.9500 -61.1167 262° West 450 518 35,000  Level Moncton Center
Tue 02:11:25 PM 42.9500 -61.3000 270° West 450 518 35,000  Level Moncton Center
Tue 02:12:25 PM 42.9500 -61.4500 270° West 450 518 35,000  Level Moncton Center
Tue 02:13:25 PM 42.9333 -61.6167 262° West 450 518 35,000  Level Moncton Center
Tue 02:14:25 PM 42.9333 -61.8000 270° West 440 506 35,000  Level Moncton Center
Tue 02:15:25 PM 42.9167 -61.9500 261° West 450 518 35,000  Level Moncton Center
Tue 02:16:25 PM 42.9333 -62.1333 277° West 450 518 35,000  Level Moncton Center
Tue 02:17:25 PM 42.9167 -62.3167 263° West 450 518 35,000  Level Moncton Center
Tue 02:18:25 PM 42.9000 -62.4833 262° West 450 518 35,000  Level Moncton Center
Tue 02:19:25 PM 42.9000 -62.6667 270° West 450 518 35,000  Level Moncton Center
Tue 02:20:25 PM 42.8833 -62.8167 261° West 450 518 35,000  Level Moncton Center
Tue 02:21:25 PM 42.8833 -63.0000 270° West 450 518 35,000  Level Moncton Center
Tue 02:22:25 PM 42.8833 -63.1667 270° West 450 518 35,000  Level Moncton Center
Tue 02:23:25 PM 42.8667 -63.3333 262° West 450 518 35,000  Level Moncton Center
Tue 02:24:25 PM 42.8667 -63.5167 270° West 450 518 35,000  Level Moncton Center
Tue 02:25:25 PM 42.8500 -63.6667 261° West 450 518 35,000  Level Moncton Center
Tue 02:26:25 PM 42.8333 -63.8500 263° West 440 506 35,000  Level Moncton Center
Tue 02:27:25 PM 42.8333 -64.0167 270° West 450 518 35,000  Level Moncton Center
Tue 02:28:25 PM 42.8167 -64.2000 263° West 450 518 35,000  Level Moncton Center
Tue 02:29:25 PM 42.8167 -64.3500 270° West 450 518 35,000  Level Moncton Center
Tue 02:30:25 PM 42.8000 -64.5167 262° West 450 518 35,000  Level Moncton Center
Tue 02:31:25 PM 42.7833 -64.7000 263° West 440 506 35,000  Level Moncton Center
Tue 02:32:25 PM 42.7833 -64.8500 270° West 450 518 35,000  Level Moncton Center
Tue 02:38:32 PM 42.7190 -65.9080 270° West 458 527 35,000  Level FlightAware ADS-B
Tue 02:39:52 PM 42.7020 -66.1390 264° West 457 526 35,000  Level FlightAware ADS-B
Tue 02:41:07 PM 42.6850 -66.3620 264° West 462 532 35,000  Level FlightAware ADS-B
Tue 02:42:17 PM 42.6690 -66.5620 264° West 460 529 35,000  Level FlightAware ADS-B
Tue 02:42:57 PM 42.6610 -66.6550 263° West 460 529 35,000  Level FlightAware ADS-B
Tue 02:43:37 PM 42.6520 -66.7680 264° West 460 529 35,000  Level FlightAware ADS-B
Tue 02:44:17 PM 42.6430 -66.8660 263° West 460 529 35,000  Level FlightAware ADS-B
Tue 02:45:07 PM 42.6320 -66.9880 263° West 460 529 35,000  Level FlightAware ADS-B
Tue 02:45:47 PM 42.6230 -67.0860 263° West 460 529 35,000  Level FlightAware ADS-B
Tue 02:46:27 PM 42.6140 -67.1830 263° West 460 529 35,000  Level FlightAware ADS-B
Tue 02:47:07 PM 42.6050 -67.2810 263° West 460 529 35,000  Level FlightAware ADS-B
Tue 02:47:47 PM 42.5970 -67.3780 264° West 460 529 35,000  Level FlightAware ADS-B
Tue 02:48:37 PM 42.5860 -67.5000 263° West 460 529 35,000  Level FlightAware ADS-B
Tue 02:49:17 PM 42.5770 -67.5980 263° West 460 529 35,000  Level FlightAware ADS-B
Tue 02:49:57 PM 42.5680 -67.6950 263° West 460 529 35,000  Level FlightAware ADS-B
Tue 02:52:07 PM 42.4330 -68.2380 252° West 464 534 35,000  Level FlightAware ADS-B
Tue 02:52:37 PM 42.4210 -68.3110 257° West 464 534 35,000  Level FlightAware ADS-B
Tue 02:56:02 PM 42.3210 -68.9020 257° West 461 531 35,000  Level FlightAware ADS-B
Tue 02:56:37 PM 42.3040 -68.9960 256° West 461 531 35,000  Level FlightAware ADS-B
Tue 02:57:32 PM 42.2780 -69.1470 257° West 460 529 35,000  Level FlightAware ADS-B
Tue 03:01:42 PM 42.1500 -69.8540 257° West 466 536 35,000  Level FlightAware ADS-B
Tue 03:02:22 PM 42.1310 -69.9620 257° West 469 540 35,000  Level FlightAware ADS-B
Tue 03:03:02 PM 42.1090 -70.0800 256° West 468 539 35,000  Level FlightAware ADS-B
Tue 03:03:47 PM 42.0850 -70.2060 256° West 467 537 35,000  Level FlightAware ADS-B
Tue 03:04:27 PM 42.0630 -70.3250 256° West 466 536 35,000  Level FlightAware ADS-B
Tue 03:05:07 PM 42.0330 -70.4300 249° West 472 543 35,000  Level FlightAware ADS-B
Tue 03:05:47 PM 41.9880 -70.5220 237° Southwest 475 547 35,000  Level FlightAware ADS-B
Tue 03:06:32 PM 41.9280 -70.6430 236° Southwest 477 549 35,000  Level FlightAware ADS-B
Tue 03:07:17 PM 41.8760 -70.7480 236° Southwest 477 549 35,000 -141 Level FlightAware ADS-B
Tue 03:07:57 PM 41.8250 -70.8520 237° Southwest 478 550 34,800 -600 Descending FlightAware ADS-B
Tue 03:08:37 PM 41.7820 -70.9380 236° Southwest 478 550 34,200 -988 Descending FlightAware ADS-B
Tue 03:09:22 PM 41.7210 -71.0590 236° Southwest 474 545 33,400 -988 Descending FlightAware ADS-B
Tue 03:10:02 PM 41.6770 -71.1480 237° Southwest 477 549 32,800 -988 Descending FlightAware ADS-B
Tue 03:10:47 PM 41.6210 -71.2590 236° Southwest 477 549 32,000 -988 Descending FlightAware ADS-B
Tue 03:11:27 PM 41.5670 -71.3660 236° Southwest 479 551 31,400 -1,200 Descending FlightAware ADS-B
Tue 03:12:07 PM 41.5170 -71.4630 235° Southwest 473 544 30,400 -1,765 Descending FlightAware ADS-B
Tue 03:12:52 PM 41.4600 -71.5760 236° Southwest 466 536 28,900 -1,976 Descending FlightAware ADS-B
Tue 03:13:32 PM 41.4160 -71.6620 236° Southwest 462 532 27,600 -2,000 Descending FlightAware ADS-B
Tue 03:14:07 PM 41.3730 -71.7460 236° Southwest 457 526 26,400 -1,976 Descending FlightAware ADS-B
Tue 03:14:57 PM 41.3150 -71.8580 235° Southwest 452 520 24,800 -1,980 Descending FlightAware ADS-B
Tue 03:15:47 PM 41.2830 -71.9110 231° Southwest 430 495 23,100 -2,127 Descending FlightAware ADS-B
Tue 03:16:47 PM 41.1990 -72.1190 242° Southwest 447 514 20,900 -1,320 Descending FlightAware ADS-B
Tue 03:17:27 PM 41.1660 -72.2020 242° Southwest 447 514 20,900 -2,775 Level FlightAware ADS-B
Tue 03:18:07 PM 41.1600 -72.2200 246° West 441 507 17,200 -2,612 Descending FlightAware ADS-B
Tue 03:18:52 PM 41.1220 -72.3140 242° Southwest 441 507 17,200  Level FlightAware ADS-B
Tue 03:19:32 PM 41.0900 -72.3950 242° Southwest 441 507 17,200  Level FlightAware ADS-B
Tue 03:20:12 PM 41.0570 -72.4760 242° Southwest 441 507 17,200  Level FlightAware ADS-B
Tue 03:21:02 PM 41.0160 -72.5780 242° Southwest 441 507 17,200  Level FlightAware ADS-B
Tue 03:21:42 PM 40.9840 -72.6590 242° Southwest 441 507 17,200 -2,400 Level FlightAware ADS-B
Tue 03:23:22 PM 40.8570 -72.8820 233° Southwest 301 346 11,600 -2,614 Descending FlightAware ADS-B
Tue 03:24:02 PM 40.8190 -72.9350 227° Southwest 302 348 11,100 -1,050 Descending FlightAware ADS-B
Tue 03:24:42 PM 40.7820 -72.9920 229° Southwest 297 342 10,200 -1,286 Descending FlightAware ADS-B
Tue 03:25:12 PM 40.7660 -73.0400 246° West 292 336 9,600 -1,300 Descending FlightAware ADS-B
Tue 03:25:42 PM 40.7550 -73.0910 254° West 292 336 8,900 -1,200 Descending FlightAware ADS-B
Tue 03:26:07 PM 40.7460 -73.1360 255° West 286 329 8,500 -1,091 Descending FlightAware ADS-B
Tue 03:26:37 PM 40.7370 -73.1860 257° West 282 325 7,900 -1,333 Descending FlightAware ADS-B
Tue 03:26:52 PM 40.7320 -73.2100 255° West 284 327 7,500 -1,650 Descending FlightAware ADS-B
Tue 03:27:17 PM 40.7240 -73.2540 257° West 287 330 6,800 -1,527 Descending FlightAware ADS-B
Tue 03:27:47 PM 40.7160 -73.3060 259° West 287 330 6,100 -1,100 Descending FlightAware ADS-B
Tue 03:28:17 PM 40.7290 -73.3550 289° West 275 316 5,700 -982 Descending FlightAware ADS-B
Tue 03:28:42 PM 40.7420 -73.3900 296° West 272 313 5,200 -1,091 Descending FlightAware ADS-B
Tue 03:29:12 PM 40.7580 -73.4350 295° West 264 304 4,700 -873 Descending FlightAware ADS-B
Tue 03:29:37 PM 40.7690 -73.4740 290° West 251 289 4,400 -1,745 Descending FlightAware ADS-B
Tue 03:30:07 PM 40.7740 -73.5190 278° West 259 298 3,100 -2,400 Descending FlightAware ADS-B
Tue 03:30:22 PM 40.7760 -73.5420 277° West 261 300 2,600 -1,650 Descending FlightAware ADS-B
Tue 03:30:47 PM 40.7700 -73.5790 258° West 243 280 2,000 -1,200 Descending FlightAware ADS-B
Tue 03:31:02 PM 40.7640 -73.5980 247° West 230 265 1,800 -400 Descending FlightAware ADS-B
Tue 03:31:32 PM 40.7520 -73.6340 246° West 203 234 1,700 -109 Descending FlightAware ADS-B
Tue 03:31:57 PM 40.7370 -73.6560 228° Southwest 195 224 1,700 -109 Level FlightAware ADS-B
Tue 03:32:27 PM 40.7180 -73.6780 221° Southwest 172 198 1,600 -600 Descending FlightAware ADS-B
Tue 03:32:57 PM 40.7000 -73.6980 220° Southwest 159 183 1,100 -873 Descending FlightAware ADS-B
Tue 03:33:22 PM 40.6870 -73.7120 219° Southwest 148 170 800 -764 Descending FlightAware ADS-B
Tue 03:33:52 PM 40.6730 -73.7330 229° Southwest 147 169 400 -800 Descending FlightAware ADS-B
Tue 03:34:07 PM 40.6650 -73.7400 214° Southwest 145 167 200 -800 Descending FlightAware ADS-B
Tue 03:34:22 PM 40.6570 -73.7460 210° Southwest 144 166 -800 Descending FlightAware ADS-B
Tue 03:34:42 PM 40.6450 -73.7550 210° Southwest 145 167  Level FlightAware ADS-B

Login

Don't have an account? Register now (free) for customized features, flight alerts, and more!